Time;durP1;ratioP1;P1;durP2;ratioP2;P2;SDS_P1;SDS_P2;PMS_P1;PMS_P2;Temp;Humidity;BMP_temperature;BMP_pressure;BME280_temperature;BME280_humidity;BME280_pressure;Samples;Min_cycle;Max_cycle;Signal;HPM_P1;HPM_P2
2022/07/14 00:00:08;;;;;;;1.23;1.05;;;18.70;76.20;;;;;;5023195;28;20059;-86
2022/07/14 00:02:34;;;;;;;0.93;0.93;;;18.70;76.60;;;;;;5041849;28;20028;-87
2022/07/14 00:05:00;;;;;;;1.00;0.80;;;18.70;77.30;;;;;;5023146;28;20044;-86
2022/07/14 00:07:26;;;;;;;1.25;1.15;;;18.60;77.20;;;;;;5036144;28;20123;-87
2022/07/14 00:09:51;;;;;;;2.15;1.20;;;18.60;77.20;;;;;;5050008;28;20503;-86
2022/07/14 00:12:17;;;;;;;1.20;1.10;;;18.60;76.40;;;;;;5040942;28;20047;-86
2022/07/14 00:14:43;;;;;;;1.30;1.20;;;18.50;75.10;;;;;;5022263;28;20491;-86
2022/07/14 00:17:09;;;;;;;1.40;1.23;;;18.40;76.00;;;;;;5052401;28;20032;-85
2022/07/14 00:19:34;;;;;;;1.48;1.20;;;18.40;77.80;;;;;;5005919;28;20039;-86
2022/07/14 00:22:00;;;;;;;1.45;1.35;;;18.30;77.10;;;;;;5038574;28;20042;-87
2022/07/14 00:24:26;;;;;;;1.65;1.40;;;18.30;76.90;;;;;;5043932;28;20028;-87
2022/07/14 00:26:52;;;;;;;1.40;1.30;;;18.30;76.90;;;;;;5045109;28;20033;-87
2022/07/14 00:29:17;;;;;;;1.38;1.27;;;18.30;77.30;;;;;;5036830;28;20036;-87
2022/07/14 00:31:43;;;;;;;1.30;1.20;;;18.30;77.10;;;;;;5038336;28;20033;-87
2022/07/14 00:34:10;;;;;;;1.30;1.20;;;18.20;77.00;;;;;;5018934;28;20048;-87
2022/07/14 00:36:36;;;;;;;1.40;1.30;;;18.20;77.10;;;;;;5054048;28;20094;-87
2022/07/14 00:39:02;;;;;;;1.98;1.25;;;18.20;77.80;;;;;;5020248;28;20452;-87
2022/07/14 00:41:27;;;;;;;4.10;1.20;;;18.20;76.40;;;;;;5046392;28;20037;-86
2022/07/14 00:43:53;;;;;;;1.45;1.35;;;18.10;76.90;;;;;;5020496;28;20037;-87
2022/07/14 00:46:19;;;;;;;2.17;1.00;;;18.10;76.80;;;;;;5035377;28;20063;-86
2022/07/14 00:48:45;;;;;;;1.27;1.13;;;18.00;76.50;;;;;;5041934;28;20406;-88
2022/07/14 00:51:10;;;;;;;1.20;1.15;;;18.00;77.60;;;;;;5038568;28;20040;-87
2022/07/14 00:53:36;;;;;;;0.93;0.93;;;18.00;77.90;;;;;;5038881;28;20471;-86
2022/07/14 00:56:02;;;;;;;1.30;1.20;;;17.90;78.40;;;;;;5022451;28;20032;-87
2022/07/14 00:58:28;;;;;;;1.30;0.90;;;17.90;79.00;;;;;;5036163;28;20041;-86
2022/07/14 01:00:54;;;;;;;1.00;0.90;;;17.80;77.90;;;;;;5037819;28;20043;-86
2022/07/14 01:03:20;;;;;;;4.05;1.15;;;17.80;75.60;;;;;;5037125;28;20040;-86
2022/07/14 01:05:46;;;;;;;1.17;1.08;;;17.80;77.00;;;;;;5037494;28;20119;-85
2022/07/14 01:08:11;;;;;;;1.33;1.23;;;17.70;77.00;;;;;;5018598;28;20509;-86
2022/07/14 01:10:37;;;;;;;1.30;1.20;;;17.60;77.40;;;;;;5045332;28;20035;-87
2022/07/14 01:13:05;;;;;;;1.10;1.00;;;17.50;78.10;;;;;;5058488;28;20039;-85
2022/07/14 01:15:32;;;;;;;1.33;1.23;;;17.50;78.50;;;;;;5041868;28;20125;-86
2022/07/14 01:17:58;;;;;;;1.20;1.10;;;17.50;77.60;;;;;;5038288;28;20131;-86
2022/07/14 01:20:24;;;;;;;0.90;0.82;;;17.50;78.20;;;;;;5037350;28;20172;-87
2022/07/14 01:22:51;;;;;;;2.08;0.85;;;17.40;78.60;;;;;;5036829;28;20028;-86
2022/07/14 01:25:19;;;;;;;1.20;1.10;;;17.50;78.90;;;;;;5037322;28;20071;-86
2022/07/14 01:27:45;;;;;;;1.27;1.13;;;17.50;78.10;;;;;;5038051;28;20048;-86
2022/07/14 01:30:11;;;;;;;1.30;1.17;;;17.50;78.60;;;;;;5038025;28;20032;-86
2022/07/14 01:32:37;;;;;;;3.60;0.98;;;17.50;78.20;;;;;;5038033;28;20058;-86
2022/07/14 01:35:05;;;;;;;1.38;0.90;;;17.50;78.50;;;;;;5038071;28;20024;-86
2022/07/14 01:37:31;;;;;;;3.53;1.25;;;17.50;79.20;;;;;;5033655;28;20434;-87
2022/07/14 01:39:57;;;;;;;0.80;0.80;;;17.50;79.10;;;;;;5034543;28;20498;-86
2022/07/14 01:42:25;;;;;;;2.55;0.80;;;17.50;79.20;;;;;;5037340;28;20033;-87
2022/07/14 01:44:51;;;;;;;0.98;0.98;;;17.50;78.50;;;;;;5021002;28;20044;-87
2022/07/14 01:47:16;;;;;;;4.15;1.30;;;17.50;79.30;;;;;;5023971;28;20044;-87
2022/07/14 01:49:42;;;;;;;1.10;1.00;;;17.50;78.90;;;;;;5016755;28;20037;-87
2022/07/14 01:52:09;;;;;;;0.80;0.80;;;17.50;79.80;;;;;;5005012;28;20044;-86
2022/07/14 01:54:37;;;;;;;1.50;0.90;;;17.60;80.10;;;;;;5037647;28;20143;-87
2022/07/14 01:57:03;;;;;;;1.00;1.00;;;17.60;79.00;;;;;;5038303;28;20156;-87
2022/07/14 01:59:31;;;;;;;0.90;0.90;;;17.60;77.20;;;;;;5036203;28;20530;-86
2022/07/14 02:01:58;;;;;;;0.95;0.93;;;17.70;77.50;;;;;;5053847;28;20036;-86
2022/07/14 02:04:24;;;;;;;4.32;0.90;;;17.70;77.90;;;;;;5054187;28;20028;-87
2022/07/14 02:06:52;;;;;;;0.80;0.80;;;17.70;78.30;;;;;;5070691;28;20036;-87
2022/07/14 02:12:37;;;;;;;0.80;0.80;;;17.70;78.50;;;;;;5050560;28;20396;-86
2022/07/14 02:15:04;;;;;;;1.23;1.10;;;17.80;78.20;;;;;;5021414;28;20062;-87
2022/07/14 02:17:32;;;;;;;1.45;1.13;;;17.80;78.60;;;;;;5068985;28;20038;-87
2022/07/14 02:19:57;;;;;;;1.15;0.80;;;17.70;79.00;;;;;;5036008;28;20028;-85
2022/07/14 02:22:23;;;;;;;1.10;1.00;;;17.70;79.00;;;;;;5018574;28;20495;-86
2022/07/14 02:24:49;;;;;;;1.00;0.90;;;17.70;79.40;;;;;;5037786;28;20044;-86
2022/07/14 02:27:16;;;;;;;0.80;0.80;;;17.70;78.80;;;;;;5037142;28;20029;-86
2022/07/14 02:29:43;;;;;;;0.90;0.90;;;17.70;79.10;;;;;;5052548;28;20123;-87
2022/07/14 02:32:09;;;;;;;1.08;0.88;;;17.70;79.00;;;;;;5019733;28;20454;-86
2022/07/14 02:34:35;;;;;;;1.13;1.02;;;17.70;80.10;;;;;;5016903;28;20554;-87
2022/07/14 02:37:01;;;;;;;1.48;0.80;;;17.70;79.40;;;;;;5032514;28;20822;-86
2022/07/14 02:39:27;;;;;;;3.55;1.33;;;17.70;79.60;;;;;;5019898;28;20032;-87
2022/07/14 02:41:53;;;;;;;1.85;1.10;;;17.70;79.70;;;;;;5016790;28;20033;-86
2022/07/14 02:44:18;;;;;;;1.02;0.90;;;17.70;80.00;;;;;;4997249;28;20032;-86
2022/07/14 02:46:45;;;;;;;1.13;0.98;;;17.80;80.70;;;;;;5043084;28;20492;-86
2022/07/14 02:49:11;;;;;;;1.08;1.00;;;17.80;81.00;;;;;;5032548;28;20063;-86
2022/07/14 02:51:40;;;;;;;1.13;1.00;;;17.80;80.60;;;;;;5020948;28;20032;-86
2022/07/14 02:54:06;;;;;;;1.35;1.10;;;17.80;80.40;;;;;;5019853;28;20075;-87
2022/07/14 02:56:33;;;;;;;0.90;0.90;;;17.80;80.50;;;;;;5027018;28;20534;-87
2022/07/14 02:59:00;;;;;;;3.13;1.25;;;17.80;80.30;;;;;;5049152;28;20075;-86
2022/07/14 03:01:28;;;;;;;1.10;1.10;;;17.80;80.10;;;;;;5036685;28;20587;-87
2022/07/14 03:03:54;;;;;;;1.17;1.00;;;17.80;80.00;;;;;;5019862;28;20037;-86
2022/07/14 03:06:20;;;;;;;1.02;1.02;;;17.80;80.50;;;;;;5038446;28;20048;-86
2022/07/14 03:08:49;;;;;;;1.27;1.17;;;17.80;80.00;;;;;;5036501;28;20111;-85
2022/07/14 03:11:15;;;;;;;1.10;1.00;;;17.80;80.40;;;;;;5035929;28;20033;-86
2022/07/14 03:13:42;;;;;;;2.55;1.10;;;17.80;80.10;;;;;;5019948;28;20036;-86
2022/07/14 03:16:09;;;;;;;2.15;0.80;;;17.80;79.90;;;;;;5032878;28;20025;-86
2022/07/14 03:18:39;;;;;;;1.05;1.00;;;17.80;81.20;;;;;;5048794;28;20025;-87
2022/07/14 03:21:07;;;;;;;1.20;1.08;;;17.80;80.90;;;;;;5036021;28;20033;-87
2022/07/14 03:23:33;;;;;;;0.85;0.80;;;17.80;81.10;;;;;;5049918;28;20087;-87
2022/07/14 03:25:59;;;;;;;1.13;0.95;;;17.80;82.40;;;;;;5039389;28;20071;-87
2022/07/14 03:28:25;;;;;;;1.05;1.05;;;17.80;83.40;;;;;;5021332;28;20064;-87
2022/07/14 03:30:58;;;;;;;1.25;0.80;;;17.80;84.20;;;;;;5048235;28;20402;-87
2022/07/14 03:33:24;;;;;;;1.20;1.10;;;17.80;84.70;;;;;;5056475;28;20033;-87
2022/07/14 03:35:50;;;;;;;1.58;1.00;;;17.80;85.30;;;;;;5039850;28;20028;-88
2022/07/14 03:38:17;;;;;;;1.73;0.80;;;17.80;84.90;;;;;;5056212;28;20096;-87
2022/07/14 03:40:44;;;;;;;0.98;0.88;;;17.80;84.70;;;;;;5052969;28;20565;-89
2022/07/14 03:43:11;;;;;;;1.10;1.00;;;17.80;85.20;;;;;;5020446;28;20091;-88
2022/07/14 03:45:38;;;;;;;1.27;1.17;;;17.70;85.50;;;;;;5024596;28;20052;-87
2022/07/14 03:48:07;;;;;;;1.00;1.00;;;17.70;86.00;;;;;;5039748;28;20123;-87
2022/07/14 03:50:36;;;;;;;1.10;1.00;;;17.70;85.70;;;;;;5039857;28;20028;-87
2022/07/14 03:53:04;;;;;;;1.00;0.90;;;17.70;85.50;;;;;;5040703;28;20082;-86
2022/07/14 03:55:31;;;;;;;0.90;0.90;;;17.70;85.70;;;;;;5040626;28;20028;-85
2022/07/14 03:57:59;;;;;;;0.98;0.90;;;17.70;85.30;;;;;;5057090;28;20104;-87
2022/07/14 04:00:27;;;;;;;1.30;1.10;;;17.60;84.10;;;;;;5039800;28;20033;-86
2022/07/14 04:02:53;;;;;;;1.75;1.10;;;17.60;83.20;;;;;;5039570;28;20036;-86
2022/07/14 04:05:24;;;;;;;1.35;1.10;;;17.50;83.10;;;;;;5040692;28;20043;-87
2022/07/14 04:07:52;;;;;;;1.40;1.30;;;17.60;84.60;;;;;;5058421;28;20029;-87
2022/07/14 04:10:19;;;;;;;1.27;1.20;;;17.50;83.70;;;;;;5055708;28;20033;-87
2022/07/14 04:12:45;;;;;;;1.23;1.13;;;17.50;85.20;;;;;;5023386;28;20033;-85
2022/07/14 04:15:11;;;;;;;1.35;1.25;;;17.50;84.60;;;;;;5041372;28;20162;-86
2022/07/14 04:17:38;;;;;;;1.25;1.15;;;17.50;83.30;;;;;;5055974;28;20115;-86
2022/07/14 04:20:05;;;;;;;3.33;1.30;;;17.50;84.00;;;;;;5039508;28;20029;-86
2022/07/14 04:22:33;;;;;;;1.60;1.38;;;17.40;84.70;;;;;;5056307;28;20032;-86
2022/07/14 04:24:59;;;;;;;2.25;1.08;;;17.40;84.60;;;;;;5023114;28;20068;-86
2022/07/14 04:27:25;;;;;;;1.10;1.10;;;17.30;85.10;;;;;;5043524;28;20539;-86
2022/07/14 04:29:54;;;;;;;1.27;1.17;;;17.30;86.60;;;;;;5039420;28;20552;-89
2022/07/14 04:32:28;;;;;;;3.80;1.40;;;17.30;87.00;;;;;;5058720;28;20568;-88
2022/07/14 04:35:25;;;;;;;1.08;1.02;;;17.30;87.70;;;;;;5036496;28;20791;-87
2022/07/14 04:38:21;;;;;;;1.23;1.10;;;17.30;88.30;;;;;;5028920;28;20029;-87
2022/07/14 04:41:03;;;;;;;1.73;1.20;;;17.40;88.40;;;;;;5055105;28;20037;-89
2022/07/14 04:44:12;;;;;;;1.40;1.30;;;17.40;88.30;;;;;;5038559;28;20079;-88
2022/07/14 04:46:54;;;;;;;1.45;1.35;;;17.40;89.70;;;;;;5052857;28;20060;-88
2022/07/14 04:52:35;;;;;;;1.35;1.25;;;17.50;89.20;;;;;;5056268;28;20040;-89
2022/07/14 04:55:35;;;;;;;1.00;0.93;;;17.50;89.30;;;;;;5044031;28;20399;-88
2022/07/14 04:58:13;;;;;;;1.10;1.00;;;17.50;89.90;;;;;;5031347;28;20078;-89
2022/07/14 05:00:40;;;;;;;1.60;1.27;;;17.50;90.30;;;;;;5040715;28;20024;-88
2022/07/14 05:03:06;;;;;;;1.17;1.10;;;17.50;90.70;;;;;;5038090;28;20033;-88
2022/07/14 05:05:32;;;;;;;1.63;1.52;;;17.60;90.60;;;;;;5038644;28;20036;-88
2022/07/14 05:07:58;;;;;;;1.38;1.20;;;17.60;90.30;;;;;;5038300;28;20123;-89
2022/07/14 05:10:32;;;;;;;1.33;1.23;;;17.70;90.10;;;;;;5017208;28;20081;-88
2022/07/14 05:12:57;;;;;;;1.77;1.20;;;17.80;90.30;;;;;;5046456;28;20116;-89
2022/07/14 05:15:24;;;;;;;2.35;1.25;;;17.90;90.90;;;;;;5038318;28;20491;-88
2022/07/14 05:17:51;;;;;;;1.23;1.20;;;17.90;90.60;;;;;;5006301;28;20387;-89
2022/07/14 05:20:17;;;;;;;1.55;1.30;;;18.10;90.30;;;;;;5037721;28;20040;-88
2022/07/14 05:22:44;;;;;;;1.25;1.15;;;18.10;89.80;;;;;;5038005;28;20127;-88
2022/07/14 05:25:13;;;;;;;1.02;1.02;;;18.20;89.30;;;;;;5038521;28;20036;-89
2022/07/14 05:27:39;;;;;;;1.13;1.02;;;18.30;89.80;;;;;;5055013;28;20063;-88
2022/07/14 05:30:09;;;;;;;1.20;1.15;;;18.50;89.80;;;;;;5037654;28;20034;-88
2022/07/14 05:32:37;;;;;;;1.20;1.10;;;18.60;89.50;;;;;;5050247;28;20040;-87
2022/07/14 05:35:05;;;;;;;1.25;1.15;;;18.80;90.00;;;;;;5034763;28;20025;-88
2022/07/14 05:37:32;;;;;;;1.20;1.10;;;18.90;89.40;;;;;;5064237;28;20028;-88
2022/07/14 05:40:00;;;;;;;1.27;1.17;;;19.00;90.00;;;;;;5034875;28;20124;-88
2022/07/14 05:42:26;;;;;;;1.00;1.00;;;19.10;90.00;;;;;;5037950;28;20108;-88
2022/07/14 05:44:52;;;;;;;1.30;1.20;;;19.20;88.80;;;;;;5036809;28;20025;-88
2022/07/14 05:47:18;;;;;;;1.25;1.13;;;19.30;88.70;;;;;;5053249;28;20039;-88
2022/07/14 05:49:44;;;;;;;1.67;1.58;;;19.50;87.90;;;;;;5038574;28;20218;-89
2022/07/14 05:52:11;;;;;;;1.20;1.13;;;19.70;86.00;;;;;;5045835;28;20111;-87
2022/07/14 05:54:37;;;;;;;1.23;1.13;;;19.90;87.50;;;;;;5035383;28;19923;-89
2022/07/14 05:57:04;;;;;;;1.30;1.20;;;20.00;85.90;;;;;;5045400;28;20437;-88
2022/07/14 05:59:30;;;;;;;2.25;1.48;;;20.00;85.60;;;;;;5025620;28;20028;-86
2022/07/14 06:01:56;;;;;;;1.55;1.10;;;20.20;85.50;;;;;;5027498;28;20063;-88
2022/07/14 06:04:22;;;;;;;3.08;1.40;;;20.30;84.70;;;;;;5025539;28;20123;-86
2022/07/14 06:06:49;;;;;;;2.35;1.20;;;20.40;84.50;;;;;;5044682;28;20147;-87
2022/07/14 06:09:15;;;;;;;1.25;1.15;;;20.50;85.80;;;;;;5076594;28;20025;-88
2022/07/14 06:11:44;;;;;;;1.67;1.58;;;20.50;85.90;;;;;;5049168;28;20059;-89
2022/07/14 06:14:10;;;;;;;1.50;1.40;;;20.60;84.20;;;;;;5035418;28;20123;-88
2022/07/14 06:16:36;;;;;;;1.58;1.42;;;20.60;82.60;;;;;;5053408;28;20039;-87
2022/07/14 06:19:03;;;;;;;1.40;1.30;;;20.50;83.00;;;;;;5036493;28;20032;-87
2022/07/14 06:21:29;;;;;;;2.08;1.60;;;20.40;82.00;;;;;;5050854;28;20029;-89
2022/07/14 06:23:55;;;;;;;1.90;1.60;;;20.30;83.40;;;;;;5034316;28;20041;-87
2022/07/14 06:26:22;;;;;;;2.05;1.45;;;20.30;82.50;;;;;;5037251;28;20036;-88
2022/07/14 06:28:49;;;;;;;2.65;1.27;;;20.20;82.20;;;;;;5037048;28;20465;-87
2022/07/14 06:31:16;;;;;;;2.17;1.70;;;20.20;83.30;;;;;;5050273;28;20035;-86
2022/07/14 06:33:43;;;;;;;1.60;1.50;;;20.20;84.10;;;;;;5052527;28;20123;-87
2022/07/14 06:36:27;;;;;;;1.50;1.40;;;20.10;84.50;;;;;;5043571;28;20102;-87
2022/07/14 06:38:53;;;;;;;2.17;1.58;;;19.90;85.40;;;;;;5021138;28;20511;-87
2022/07/14 06:41:21;;;;;;;1.55;1.45;;;19.90;85.90;;;;;;5041783;28;20038;-88
2022/07/14 06:43:47;;;;;;;1.83;1.42;;;19.90;85.60;;;;;;5039437;28;20036;-86
2022/07/14 06:46:17;;;;;;;1.13;1.02;;;20.00;86.20;;;;;;5041563;28;20028;-86
2022/07/14 06:48:44;;;;;;;2.95;1.58;;;20.10;87.20;;;;;;5050550;28;20081;-87
2022/07/14 06:51:10;;;;;;;1.20;1.10;;;20.20;87.20;;;;;;5053347;28;20035;-86
2022/07/14 06:53:35;;;;;;;1.40;1.30;;;20.30;88.00;;;;;;5071316;28;20033;-87
2022/07/14 06:56:01;;;;;;;1.30;1.30;;;20.40;88.10;;;;;;5020387;28;20035;-88
2022/07/14 06:58:27;;;;;;;1.30;1.20;;;20.50;87.80;;;;;;5036533;28;20039;-89
2022/07/14 07:00:53;;;;;;;1.42;1.30;;;20.60;87.70;;;;;;5066496;28;20037;-90
2022/07/14 07:03:19;;;;;;;1.80;1.48;;;20.60;87.50;;;;;;5036954;28;20033;-89
2022/07/14 07:08:29;;;;;;;1.67;1.38;;;20.80;86.60;;;;;;5020492;28;20110;-89
2022/07/14 07:10:56;;;;;;;1.52;1.42;;;20.90;84.80;;;;;;5023714;28;20068;-89
2022/07/14 07:13:22;;;;;;;1.60;1.50;;;21.00;85.10;;;;;;5037030;28;20032;-90
2022/07/14 07:15:47;;;;;;;1.77;1.40;;;21.10;85.90;;;;;;5020887;28;20028;-89
2022/07/14 07:18:13;;;;;;;1.58;1.48;;;21.20;85.00;;;;;;5037142;28;20037;-89
2022/07/14 07:20:44;;;;;;;1.95;1.50;;;21.30;82.90;;;;;;5020835;28;20040;-89
2022/07/14 07:23:10;;;;;;;2.38;1.67;;;21.40;80.20;;;;;;5054126;28;20037;-88
2022/07/14 07:25:36;;;;;;;1.80;1.70;;;21.40;76.70;;;;;;5034017;28;20124;-90
2022/07/14 07:28:03;;;;;;;1.40;1.30;;;21.20;78.80;;;;;;5062888;28;20086;-90
2022/07/14 07:30:29;;;;;;;1.65;1.55;;;21.10;80.70;;;;;;5036117;28;20083;-90
2022/07/14 07:32:55;;;;;;;1.50;1.40;;;21.10;82.70;;;;;;5054166;28;20506;-89
2022/07/14 07:35:21;;;;;;;1.60;1.50;;;21.20;82.70;;;;;;5020659;28;20056;-90
2022/07/14 07:37:48;;;;;;;4.90;1.52;;;21.20;83.70;;;;;;5037168;28;20025;-90
2022/07/14 07:40:15;;;;;;;1.92;1.30;;;21.30;82.80;;;;;;5053526;28;20379;-89
2022/07/14 07:42:44;;;;;;;1.98;1.63;;;21.40;81.90;;;;;;5054050;28;20028;-90
2022/07/14 07:45:11;;;;;;;2.80;1.80;;;21.50;81.50;;;;;;5054765;28;20669;-87
2022/07/14 07:47:37;;;;;;;1.60;1.50;;;21.50;82.20;;;;;;5056085;28;20037;-87
2022/07/14 07:50:04;;;;;;;2.00;1.90;;;21.70;81.10;;;;;;5038450;28;20477;-88
2022/07/14 07:52:30;;;;;;;1.42;1.33;;;21.60;79.00;;;;;;5038388;28;20028;-88
2022/07/14 07:54:56;;;;;;;2.35;1.60;;;21.80;79.30;;;;;;5045468;28;20036;-88
2022/07/14 07:57:22;;;;;;;1.80;1.33;;;21.90;80.80;;;;;;5033279;28;20112;-87
2022/07/14 07:59:49;;;;;;;1.50;1.40;;;22.00;79.80;;;;;;5016664;28;20025;-88
2022/07/14 08:02:16;;;;;;;1.80;1.60;;;22.20;80.70;;;;;;5047887;28;20029;-88
2022/07/14 08:04:42;;;;;;;1.80;1.40;;;22.50;81.00;;;;;;5025706;28;20395;-87
2022/07/14 08:07:07;;;;;;;1.70;1.60;;;22.70;80.70;;;;;;5042541;28;20078;-87
2022/07/14 08:09:34;;;;;;;2.65;2.35;;;23.10;79.00;;;;;;5034919;28;20028;-87
2022/07/14 08:12:00;;;;;;;2.72;1.70;;;23.50;77.00;;;;;;5064475;28;20087;-86
2022/07/14 08:17:10;;;;;;;1.80;1.70;;;24.30;68.60;;;;;;5065561;28;20056;-86
2022/07/14 08:19:36;;;;;;;3.53;1.80;;;24.50;68.80;;;;;;5011039;28;20052;-86
2022/07/14 08:22:02;;;;;;;1.95;1.85;;;24.50;67.90;;;;;;5057476;28;20037;-85
2022/07/14 08:24:28;;;;;;;2.25;1.50;;;24.60;67.80;;;;;;5029612;28;20113;-86
2022/07/14 08:26:55;;;;;;;2.80;1.60;;;24.50;67.10;;;;;;5025839;28;20032;-84
2022/07/14 08:29:21;;;;;;;2.38;2.08;;;24.70;67.40;;;;;;5038022;28;20060;-85
2022/07/14 08:31:47;;;;;;;2.30;2.03;;;25.10;67.20;;;;;;5035828;28;20086;-84
2022/07/14 08:34:13;;;;;;;1.55;1.45;;;25.30;63.70;;;;;;5026910;28;20487;-84
2022/07/14 08:36:39;;;;;;;1.60;1.50;;;25.50;63.10;;;;;;5056997;28;20056;-86
2022/07/14 08:39:05;;;;;;;2.17;2.00;;;25.70;64.10;;;;;;5037793;28;20025;-86
2022/07/14 08:41:38;;;;;;;1.65;1.55;;;25.80;62.40;;;;;;5039152;28;20505;-85
2022/07/14 08:44:05;;;;;;;1.33;1.23;;;25.80;64.40;;;;;;5054142;28;20036;-86
2022/07/14 08:46:31;;;;;;;3.75;1.48;;;26.00;63.60;;;;;;5039411;28;20037;-87
2022/07/14 08:48:58;;;;;;;1.50;1.40;;;26.20;65.00;;;;;;5040767;28;20029;-87
2022/07/14 08:51:24;;;;;;;1.75;1.30;;;26.50;64.40;;;;;;5026048;28;20032;-86
2022/07/14 08:53:50;;;;;;;2.40;1.33;;;26.70;61.90;;;;;;5054231;28;20109;-86
2022/07/14 08:56:16;;;;;;;1.67;1.30;;;27.00;58.60;;;;;;5040961;28;20062;-86
2022/07/14 08:58:44;;;;;;;5.45;1.70;;;27.30;59.90;;;;;;5039077;28;20036;-87
2022/07/14 09:01:11;;;;;;;1.30;1.20;;;27.40;57.30;;;;;;5037784;28;20616;-86
2022/07/14 09:03:37;;;;;;;10.18;1.80;;;27.50;56.60;;;;;;5038324;28;20541;-85
2022/07/14 09:06:05;;;;;;;1.65;1.33;;;27.50;56.60;;;;;;5017640;28;20040;-85
2022/07/14 09:08:53;;;;;;;1.60;1.10;;;27.50;53.80;;;;;;5039925;28;20155;-86
2022/07/14 09:11:19;;;;;;;1.20;1.10;;;27.60;54.00;;;;;;5040834;28;20037;-85
2022/07/14 09:13:45;;;;;;;1.45;1.20;;;27.60;55.70;;;;;;5058780;28;20124;-85
2022/07/14 09:16:20;;;;;;;1.13;0.90;;;27.60;57.00;;;;;;5036477;28;20171;-85
2022/07/14 09:19:07;;;;;;;0.73;0.52;;;27.50;53.00;;;;;;5021323;28;20041;-85
2022/07/14 09:21:33;;;;;;;0.85;0.70;;;27.10;50.70;;;;;;5036754;28;20089;-85
2022/07/14 09:24:00;;;;;;;3.33;0.95;;;27.00;53.50;;;;;;5054762;28;20028;-84
2022/07/14 09:26:29;;;;;;;0.93;0.82;;;26.70;53.50;;;;;;5037517;28;20040;-85
2022/07/14 09:28:55;;;;;;;1.45;1.10;;;26.50;54.80;;;;;;5054352;28;20114;-86
2022/07/14 09:31:30;;;;;;;1.17;0.90;;;26.40;55.40;;;;;;5038156;28;20051;-85
2022/07/14 09:34:05;;;;;;;0.70;0.70;;;26.40;57.70;;;;;;5037879;28;20497;-85
2022/07/14 09:36:34;;;;;;;1.13;0.93;;;26.40;57.80;;;;;;5051388;28;20029;-87
2022/07/14 09:39:08;;;;;;;1.30;0.70;;;26.40;61.40;;;;;;5037072;28;20127;-87
2022/07/14 09:41:47;;;;;;;0.77;0.77;;;26.40;62.70;;;;;;5021520;28;20028;-87
2022/07/14 09:44:17;;;;;;;0.88;0.80;;;26.50;62.40;;;;;;5054376;28;20068;-85
2022/07/14 09:46:50;;;;;;;1.15;1.05;;;26.70;60.30;;;;;;5038456;28;20039;-86
2022/07/14 09:49:17;;;;;;;1.30;1.02;;;26.80;57.80;;;;;;5053647;28;20081;-85
2022/07/14 09:51:55;;;;;;;0.82;0.82;;;27.00;57.50;;;;;;5037924;28;20150;-86
2022/07/14 09:54:48;;;;;;;1.35;1.25;;;27.00;57.20;;;;;;5053937;28;20056;-84
2022/07/14 09:57:14;;;;;;;0.90;0.90;;;27.20;56.70;;;;;;5035012;28;20041;-86
2022/07/14 09:59:57;;;;;;;1.58;1.00;;;27.20;56.80;;;;;;5033215;28;20186;-85
2022/07/14 10:02:29;;;;;;;0.98;0.98;;;27.40;56.30;;;;;;5051748;28;20039;-85
2022/07/14 10:05:01;;;;;;;1.58;1.40;;;27.60;54.00;;;;;;5037670;28;20136;-86
2022/07/14 10:07:35;;;;;;;1.02;1.02;;;27.70;55.00;;;;;;5038226;28;20036;-85
2022/07/14 10:10:04;;;;;;;1.30;1.05;;;27.80;54.60;;;;;;5052847;28;20082;-84
2022/07/14 10:12:30;;;;;;;2.28;1.25;;;28.00;55.90;;;;;;5065661;28;20032;-86
2022/07/14 10:15:00;;;;;;;1.35;1.10;;;28.10;56.70;;;;;;5033977;28;20048;-86
2022/07/14 10:17:27;;;;;;;1.10;0.98;;;28.20;58.00;;;;;;5021608;28;20634;-85
2022/07/14 10:19:54;;;;;;;1.38;1.10;;;28.40;56.00;;;;;;5020355;28;20483;-86
2022/07/14 10:22:20;;;;;;;1.40;0.95;;;28.50;55.70;;;;;;5050452;28;20139;-85
2022/07/14 10:24:49;;;;;;;0.93;0.93;;;28.60;55.40;;;;;;5067910;28;20036;-85
2022/07/14 10:27:21;;;;;;;1.33;1.13;;;28.80;57.70;;;;;;5021232;28;20029;-84
2022/07/14 10:29:51;;;;;;;1.30;1.08;;;28.90;54.60;;;;;;5040746;28;20072;-86
2022/07/14 10:32:33;;;;;;;2.55;1.13;;;28.80;56.00;;;;;;5069126;28;20016;-85
2022/07/14 10:35:28;;;;;;;1.25;1.15;;;28.80;57.60;;;;;;5049769;28;20054;-85
2022/07/14 10:38:12;;;;;;;1.85;0.90;;;28.70;57.80;;;;;;5055353;28;20032;-86
2022/07/14 10:41:19;;;;;;;1.92;1.30;;;28.80;56.70;;;;;;5055945;28;20177;-85
2022/07/14 10:44:10;;;;;;;6.38;1.23;;;28.60;54.50;;;;;;5072398;28;20627;-85
2022/07/14 10:46:42;;;;;;;1.27;1.17;;;28.60;56.60;;;;;;5048781;28;20024;-85
2022/07/14 10:49:11;;;;;;;1.45;1.02;;;28.70;56.70;;;;;;5007893;28;20400;-85
2022/07/14 10:52:03;;;;;;;1.10;0.90;;;29.00;59.10;;;;;;5070305;28;20021;-87
2022/07/14 10:54:30;;;;;;;1.17;1.05;;;29.40;55.30;;;;;;5061074;28;20051;-86
2022/07/14 10:57:12;;;;;;;1.27;1.02;;;29.80;56.30;;;;;;5060031;28;20021;-87
2022/07/14 10:59:39;;;;;;;1.75;1.30;;;29.90;54.90;;;;;;5050207;28;20387;-85
2022/07/14 11:02:14;;;;;;;2.63;1.15;;;29.80;49.50;;;;;;5035577;28;20040;-85
2022/07/14 11:05:02;;;;;;;1.17;1.07;;;29.70;52.90;;;;;;5037400;28;20512;-85
2022/07/14 11:07:53;;;;;;;3.00;1.00;;;29.70;54.40;;;;;;5036312;28;20760;-86
2022/07/14 11:10:18;;;;;;;2.00;1.10;;;29.60;53.50;;;;;;5047953;28;20087;-85
2022/07/14 11:12:59;;;;;;;2.17;1.08;;;29.40;52.30;;;;;;5053910;28;20059;-86
2022/07/14 11:15:55;;;;;;;2.95;1.10;;;29.30;54.70;;;;;;5055638;28;20576;-86
2022/07/14 11:18:27;;;;;;;2.08;1.20;;;29.10;55.10;;;;;;5033332;28;20033;-85
2022/07/14 11:21:14;;;;;;;1.50;1.27;;;29.00;56.90;;;;;;5035951;28;20036;-84
2022/07/14 11:23:46;;;;;;;1.13;1.02;;;29.10;54.00;;;;;;5040916;28;20082;-84
2022/07/14 11:26:41;;;;;;;1.25;1.00;;;29.30;51.60;;;;;;5049337;28;20054;-85
2022/07/14 11:29:09;;;;;;;1.30;1.20;;;29.40;56.00;;;;;;5060260;28;20029;-85
2022/07/14 11:31:48;;;;;;;2.22;1.50;;;29.60;54.10;;;;;;5042212;28;20033;-83
2022/07/14 11:37:19;;;;;;;3.30;1.30;;;30.00;53.20;;;;;;5041510;28;20029;-84
2022/07/14 11:39:45;;;;;;;1.42;1.33;;;30.20;55.00;;;;;;5036271;28;20025;-84
2022/07/14 11:42:16;;;;;;;2.20;1.35;;;30.30;52.40;;;;;;5049210;28;20043;-84
2022/07/14 11:44:43;;;;;;;1.15;1.10;;;30.40;51.70;;;;;;5031665;28;20182;-84
2022/07/14 11:47:29;;;;;;;0.90;0.90;;;30.40;53.10;;;;;;5042658;28;20028;-85
2022/07/14 11:50:00;;;;;;;1.60;0.98;;;30.40;53.10;;;;;;5038107;28;20035;-85
2022/07/14 11:52:31;;;;;;;1.30;1.20;;;30.50;54.80;;;;;;5035209;28;20033;-84
2022/07/14 11:54:59;;;;;;;2.65;1.30;;;30.50;53.80;;;;;;5044889;28;20048;-85
2022/07/14 11:57:25;;;;;;;1.38;1.20;;;30.60;52.20;;;;;;5034694;28;20044;-85
2022/07/14 11:59:53;;;;;;;1.48;1.23;;;30.60;53.00;;;;;;5039972;28;20036;-86
2022/07/14 12:02:21;;;;;;;4.35;1.38;;;30.60;54.00;;;;;;5053013;28;20027;-84
2022/07/14 12:04:52;;;;;;;3.90;1.27;;;30.70;52.30;;;;;;5056281;28;20032;-86
2022/07/14 12:07:21;;;;;;;1.50;1.40;;;30.80;54.40;;;;;;5055077;28;20519;-86
2022/07/14 12:09:49;;;;;;;5.05;1.70;;;31.00;50.20;;;;;;5056432;28;20032;-85
2022/07/14 12:12:17;;;;;;;2.03;1.35;;;31.20;49.00;;;;;;5057573;28;20035;-85
2022/07/14 12:14:49;;;;;;;1.70;1.60;;;31.30;51.00;;;;;;5041569;28;20094;-85
2022/07/14 12:17:20;;;;;;;1.58;1.20;;;31.30;48.30;;;;;;5041113;28;20025;-86
2022/07/14 12:19:46;;;;;;;2.95;1.40;;;31.30;49.50;;;;;;5058611;28;20033;-88
2022/07/14 12:22:13;;;;;;;3.67;1.80;;;31.40;50.00;;;;;;5056272;28;20091;-85
2022/07/14 12:24:39;;;;;;;1.40;1.08;;;31.70;49.00;;;;;;5041213;28;20451;-87
2022/07/14 12:27:07;;;;;;;1.70;1.27;;;31.90;50.10;;;;;;5050939;28;20036;-87
2022/07/14 12:29:35;;;;;;;5.00;1.67;;;32.00;50.70;;;;;;5052749;28;20028;-88
2022/07/14 12:32:01;;;;;;;1.70;1.48;;;32.20;48.30;;;;;;5056547;28;20029;-89
2022/07/14 12:34:29;;;;;;;4.07;1.63;;;32.10;48.90;;;;;;5040448;28;20079;-88
2022/07/14 12:36:57;;;;;;;1.52;1.30;;;32.10;50.20;;;;;;5043290;28;20033;-87
2022/07/14 12:39:24;;;;;;;1.40;1.17;;;32.20;51.10;;;;;;5056198;28;20059;-90
2022/07/14 12:41:51;;;;;;;3.40;1.50;;;32.30;50.00;;;;;;5042835;28;20081;-87
2022/07/14 12:44:17;;;;;;;3.60;1.30;;;32.30;50.40;;;;;;5041150;28;20043;-89
2022/07/14 12:46:43;;;;;;;1.70;1.48;;;32.40;48.30;;;;;;5039807;28;20523;-88
2022/07/14 12:49:10;;;;;;;1.17;1.15;;;32.50;50.50;;;;;;5021953;28;20039;-88
2022/07/14 12:51:42;;;;;;;1.45;1.35;;;32.70;50.80;;;;;;5047367;28;20025;-89
2022/07/14 12:54:16;;;;;;;1.67;1.30;;;33.00;48.50;;;;;;5076120;28;20486;-88
2022/07/14 12:56:45;;;;;;;1.40;1.30;;;33.20;48.90;;;;;;5040863;28;20037;-87
2022/07/14 12:59:29;;;;;;;4.22;1.92;;;33.50;48.30;;;;;;5056614;28;20509;-88
2022/07/14 13:01:56;;;;;;;3.15;1.40;;;33.70;45.90;;;;;;5065344;28;20056;-86
2022/07/14 13:04:33;;;;;;;1.88;1.30;;;33.70;46.00;;;;;;5055618;28;20031;-87
2022/07/14 13:07:02;;;;;;;2.03;1.20;;;33.50;47.50;;;;;;5055254;28;20475;-89
2022/07/14 13:09:28;;;;;;;1.83;1.65;;;33.30;47.20;;;;;;5005278;28;20054;-87
2022/07/14 13:11:55;;;;;;;1.38;1.20;;;33.10;45.90;;;;;;5034998;28;20625;-87